createdAt,value
2022-12-18T00:00:12.063Z,-10.60
2022-12-18T00:02:42.948Z,-10.70
2022-12-18T00:05:11.419Z,-10.70
2022-12-18T00:07:39.754Z,-10.80
2022-12-18T00:10:09.734Z,-10.80
2022-12-18T00:12:37.881Z,-10.80
2022-12-18T00:15:09.115Z,-10.90
2022-12-18T00:17:37.554Z,-10.90
2022-12-18T00:20:06.896Z,-10.90
2022-12-18T00:22:35.072Z,-11.00
2022-12-18T00:25:06.406Z,-11.00
2022-12-18T00:27:34.494Z,-11.00
2022-12-18T00:30:02.726Z,-11.00
2022-12-18T00:32:32.323Z,-11.00
2022-12-18T00:35:00.490Z,-11.00
2022-12-18T00:37:28.644Z,-11.00
2022-12-18T00:39:57.003Z,-11.00
2022-12-18T00:42:42.742Z,-11.00
2022-12-18T00:45:13.179Z,-11.00
2022-12-18T00:47:43.148Z,-11.00
2022-12-18T00:50:12.175Z,-11.00
2022-12-18T00:52:43.613Z,-11.00
2022-12-18T00:55:12.267Z,-11.00
2022-12-18T00:57:40.652Z,-11.00
2022-12-18T01:00:12.513Z,-11.00
2022-12-18T01:02:42.646Z,-11.00
2022-12-18T01:05:12.651Z,-11.00
2022-12-18T01:07:41.662Z,-11.00
2022-12-18T01:10:12.280Z,-11.00
2022-12-18T01:12:41.230Z,-11.00
2022-12-18T01:15:11.569Z,-11.10
2022-12-18T01:17:39.810Z,-11.10
2022-12-18T01:20:11.946Z,-11.10
2022-12-18T01:22:40.426Z,-11.20
2022-12-18T01:25:10.642Z,-11.20
2022-12-18T01:27:38.870Z,-11.20
2022-12-18T01:30:08.840Z,-11.20
2022-12-18T01:32:37.057Z,-11.20
2022-12-18T01:35:06.557Z,-11.20
2022-12-18T01:37:36.109Z,-11.20
2022-12-18T01:40:04.812Z,-11.20
2022-12-18T01:42:32.972Z,-11.20
2022-12-18T01:45:25.006Z,-11.20
2022-12-18T01:47:56.402Z,-11.20
2022-12-18T01:50:29.493Z,-11.20
2022-12-18T01:53:03.646Z,-11.20
2022-12-18T01:55:35.178Z,-11.20
2022-12-18T01:58:03.999Z,-11.20
2022-12-18T02:00:32.671Z,-11.20
2022-12-18T02:03:00.907Z,-11.20
2022-12-18T02:05:49.846Z,-11.20
2022-12-18T02:08:30.095Z,-11.20
2022-12-18T02:11:08.175Z,-11.20
2022-12-18T02:13:46.090Z,-11.20
2022-12-18T02:16:23.935Z,-11.30
2022-12-18T02:18:58.859Z,-11.30
2022-12-18T02:21:39.014Z,-11.30
2022-12-18T02:24:22.683Z,-11.30
2022-12-18T02:26:57.802Z,-11.30
2022-12-18T02:29:33.225Z,-11.30
2022-12-18T02:32:07.510Z,-11.30
2022-12-18T02:34:40.766Z,-11.20
2022-12-18T02:37:18.472Z,-11.20
2022-12-18T02:39:49.666Z,-11.20
2022-12-18T02:42:20.887Z,-11.10
2022-12-18T02:44:52.635Z,-11.20
2022-12-18T02:47:30.058Z,-11.10
2022-12-18T02:50:10.229Z,-11.10
2022-12-18T02:52:50.208Z,-11.10
2022-12-18T02:55:35.810Z,-11.00
2022-12-18T02:58:18.558Z,-11.00
2022-12-18T03:01:01.049Z,-11.00
2022-12-18T03:03:38.371Z,-11.00
2022-12-18T03:06:11.599Z,-10.90
2022-12-18T03:08:44.147Z,-10.90
2022-12-18T03:11:15.484Z,-10.90
2022-12-18T03:13:50.319Z,-10.90
2022-12-18T03:16:26.462Z,-10.90
2022-12-18T03:18:59.520Z,-10.90
2022-12-18T03:21:32.034Z,-10.90
2022-12-18T03:24:01.745Z,-10.90
2022-12-18T03:26:31.970Z,-10.80
2022-12-18T03:29:11.221Z,-10.80
2022-12-18T03:31:43.379Z,-10.80
2022-12-18T03:34:15.500Z,-10.80
2022-12-18T03:36:47.842Z,-10.80
2022-12-18T03:39:17.088Z,-10.80
2022-12-18T03:42:01.481Z,-10.80
2022-12-18T03:44:56.626Z,-10.80
2022-12-18T03:47:30.444Z,-10.90
2022-12-18T03:50:13.212Z,-11.00
2022-12-18T03:52:51.844Z,-11.00
2022-12-18T03:55:21.859Z,-11.00
2022-12-18T03:57:56.880Z,-11.00
2022-12-18T04:00:30.013Z,-11.10
2022-12-18T04:03:07.956Z,-11.10
2022-12-18T04:05:45.356Z,-11.20
2022-12-18T04:08:15.139Z,-11.20
2022-12-18T04:10:49.779Z,-11.20
2022-12-18T04:13:24.823Z,-11.20
2022-12-18T04:15:54.901Z,-11.30
2022-12-18T04:18:24.974Z,-11.30
2022-12-18T04:20:53.863Z,-11.30
2022-12-18T04:23:22.555Z,-11.40
2022-12-18T04:25:51.323Z,-11.40
2022-12-18T04:28:29.362Z,-11.40
2022-12-18T04:30:59.074Z,-11.40
2022-12-18T04:33:27.318Z,-11.40
2022-12-18T04:35:55.975Z,-11.40
2022-12-18T04:38:24.460Z,-11.50
2022-12-18T04:41:00.418Z,-11.50
2022-12-18T04:43:29.603Z,-11.40
2022-12-18T04:46:05.940Z,-11.40
2022-12-18T04:48:35.079Z,-11.40
2022-12-18T04:51:04.626Z,-11.40
2022-12-18T04:53:33.012Z,-11.40
2022-12-18T04:56:07.558Z,-11.30
2022-12-18T04:58:36.178Z,-11.40
2022-12-18T05:01:06.131Z,-11.40
2022-12-18T05:03:34.366Z,-11.40
2022-12-18T05:06:03.212Z,-11.40
2022-12-18T05:08:31.445Z,-11.40
2022-12-18T05:11:04.858Z,-11.40
2022-12-18T05:13:34.366Z,-11.40
2022-12-18T05:16:02.988Z,-11.50
2022-12-18T05:18:33.102Z,-11.50
2022-12-18T05:21:01.308Z,-11.60
2022-12-18T05:23:30.260Z,-11.60
2022-12-18T05:26:01.274Z,-11.50
2022-12-18T05:28:31.883Z,-11.50
2022-12-18T05:31:03.570Z,-11.40
2022-12-18T05:33:36.317Z,-11.30
2022-12-18T05:36:07.528Z,-11.30
2022-12-18T05:38:38.340Z,-11.10
2022-12-18T05:41:07.587Z,-11.00
2022-12-18T05:43:38.447Z,-10.90
2022-12-18T05:46:09.047Z,-10.80
2022-12-18T05:48:38.752Z,-10.70
2022-12-18T05:51:09.634Z,-10.60
2022-12-18T05:53:39.122Z,-10.50
2022-12-18T05:56:11.283Z,-10.50
2022-12-18T05:58:39.764Z,-10.40
2022-12-18T06:01:15.090Z,-10.40
2022-12-18T06:03:45.166Z,-10.30
2022-12-18T06:06:18.254Z,-10.40
2022-12-18T06:08:47.046Z,-10.40
2022-12-18T06:11:18.054Z,-10.40
2022-12-18T06:13:46.274Z,-10.40
2022-12-18T06:16:14.817Z,-10.40
2022-12-18T06:18:44.362Z,-10.40
2022-12-18T06:21:12.703Z,-10.30
2022-12-18T06:23:41.332Z,-10.30
2022-12-18T06:26:13.310Z,-10.30
2022-12-18T06:28:41.919Z,-10.20
2022-12-18T06:31:11.268Z,-10.20
2022-12-18T06:33:40.592Z,-10.10
2022-12-18T06:36:13.546Z,-10.10
2022-12-18T06:38:44.140Z,-10.10
2022-12-18T06:41:15.052Z,-10.10
2022-12-18T06:43:43.812Z,-10.10
2022-12-18T06:46:12.857Z,-10.20
2022-12-18T06:48:41.558Z,-10.20
2022-12-18T06:51:11.239Z,-10.30
2022-12-18T06:53:40.123Z,-10.40
2022-12-18T06:56:11.061Z,-10.40
2022-12-18T06:58:39.848Z,-10.30
2022-12-18T07:01:12.244Z,-10.30
2022-12-18T07:03:42.317Z,-10.30
2022-12-18T07:06:18.747Z,-10.30
2022-12-18T07:08:47.753Z,-10.30
2022-12-18T07:11:16.616Z,-10.30
2022-12-18T07:13:45.453Z,-10.20
2022-12-18T07:16:22.394Z,-10.10
2022-12-18T07:18:52.442Z,-10.20
2022-12-18T07:21:22.997Z,-10.40
2022-12-18T07:23:51.312Z,-10.40
2022-12-18T07:26:22.258Z,-10.40
2022-12-18T07:28:51.123Z,-10.40
2022-12-18T07:31:22.659Z,-10.30
2022-12-18T07:33:52.507Z,-10.30
2022-12-18T07:36:25.744Z,-10.20
2022-12-18T07:38:54.168Z,-10.20
2022-12-18T07:41:23.034Z,-10.20
2022-12-18T07:43:51.318Z,-10.20
2022-12-18T07:46:20.326Z,-10.20
2022-12-18T07:48:49.961Z,-10.00
2022-12-18T07:51:19.606Z,-9.90
2022-12-18T07:53:52.263Z,-9.90
2022-12-18T07:56:27.531Z,-9.80
2022-12-18T07:58:56.567Z,-9.80
2022-12-18T08:01:25.280Z,-9.70
2022-12-18T08:03:53.684Z,-9.70
2022-12-18T08:06:23.960Z,-9.80
2022-12-18T08:08:54.933Z,-9.70
2022-12-18T08:11:24.183Z,-9.50
2022-12-18T08:13:52.649Z,-9.40
2022-12-18T08:16:21.664Z,-8.90
2022-12-18T08:18:51.636Z,-8.60
2022-12-18T08:21:23.845Z,-8.50
2022-12-18T08:23:55.052Z,-8.50
2022-12-18T08:26:24.297Z,-8.40
2022-12-18T08:28:53.492Z,-8.40
2022-12-18T08:31:22.057Z,-8.40
2022-12-18T08:33:53.159Z,-8.50
2022-12-18T08:36:23.043Z,-8.40
2022-12-18T08:38:53.991Z,-8.30
2022-12-18T08:41:23.309Z,-8.20
2022-12-18T08:44:09.605Z,-8.10
2022-12-18T08:46:40.991Z,-8.00
2022-12-18T08:49:10.542Z,-7.90
2022-12-18T08:51:39.199Z,-7.70
2022-12-18T08:54:09.044Z,-7.60
2022-12-18T08:56:37.402Z,-7.50
2022-12-18T08:59:06.303Z,-7.30
2022-12-18T09:01:35.314Z,-7.20
2022-12-18T09:04:04.063Z,-7.10
2022-12-18T09:06:33.619Z,-7.00
2022-12-18T09:09:01.719Z,-6.90
2022-12-18T09:11:39.321Z,-6.80
2022-12-18T09:14:09.862Z,-6.80
2022-12-18T09:16:38.355Z,-6.60
2022-12-18T09:19:07.596Z,-6.50
2022-12-18T09:21:46.066Z,-6.40
2022-12-18T09:24:17.220Z,-6.30
2022-12-18T09:26:48.419Z,-6.30
2022-12-18T09:29:18.986Z,-6.10
2022-12-18T09:31:47.688Z,-5.90
2022-12-18T09:34:16.068Z,-5.70
2022-12-18T09:36:44.402Z,-5.60
2022-12-18T09:39:14.515Z,-5.50
2022-12-18T09:41:48.365Z,-5.30
2022-12-18T09:44:24.338Z,-5.20
2022-12-18T09:47:02.159Z,-5.10
2022-12-18T09:49:34.166Z,-5.00
2022-12-18T09:52:07.462Z,-4.80
2022-12-18T09:54:41.116Z,-4.70
2022-12-18T09:57:16.453Z,-4.50
2022-12-18T09:59:50.961Z,-4.40
2022-12-18T10:02:23.317Z,-4.20
2022-12-18T10:05:11.448Z,-4.20
2022-12-18T10:07:51.423Z,-4.10
2022-12-18T10:10:34.731Z,-4.00
2022-12-18T10:13:16.549Z,-3.80
2022-12-18T10:15:59.156Z,-3.60
2022-12-18T10:18:40.660Z,-3.50
2022-12-18T10:21:15.887Z,-3.40
2022-12-18T10:23:53.627Z,-3.20
2022-12-18T10:26:22.026Z,-3.10
2022-12-18T10:28:54.355Z,-2.90
2022-12-18T10:31:25.383Z,-2.80
2022-12-18T10:33:53.872Z,-2.60
2022-12-18T10:36:22.943Z,-2.50
2022-12-18T10:38:52.285Z,-2.40
2022-12-18T10:41:29.437Z,-2.30
2022-12-18T10:44:19.482Z,-2.20
2022-12-18T10:46:50.168Z,-2.10
2022-12-18T10:49:25.157Z,-2.00
2022-12-18T10:52:07.490Z,-2.00
2022-12-18T10:54:37.450Z,-1.80
2022-12-18T10:57:22.608Z,-1.60
2022-12-18T10:59:58.074Z,-1.50
2022-12-18T11:02:36.839Z,-1.40
2022-12-18T11:05:25.844Z,-1.30
2022-12-18T11:07:55.710Z,-1.10
2022-12-18T11:10:28.450Z,-1.00
2022-12-18T11:12:58.153Z,-0.80
2022-12-18T11:15:31.751Z,-0.70
2022-12-18T11:17:59.993Z,-0.70
2022-12-18T11:20:34.461Z,-0.50
2022-12-18T11:23:05.693Z,-0.30
2022-12-18T11:25:36.161Z,-0.20
2022-12-18T11:28:08.061Z,-0.10
2022-12-18T11:30:39.386Z,0.00
2022-12-18T11:33:12.080Z,0.10
2022-12-18T11:35:47.881Z,0.10
2022-12-18T11:38:25.110Z,0.00
2022-12-18T11:41:00.311Z,0.00
2022-12-18T11:43:33.868Z,0.00
2022-12-18T11:46:08.640Z,0.10
2022-12-18T11:48:45.492Z,0.10
2022-12-18T11:51:27.132Z,0.20
2022-12-18T11:53:55.597Z,0.10
2022-12-18T11:56:38.582Z,0.20
2022-12-18T11:59:18.216Z,0.10
2022-12-18T12:01:54.372Z,0.20
2022-12-18T12:05:02.989Z,0.30
2022-12-18T12:07:44.378Z,0.40
2022-12-18T12:10:28.833Z,0.50
2022-12-18T12:13:23.658Z,0.50
2022-12-18T12:16:09.309Z,0.40
2022-12-18T12:18:58.516Z,0.40
2022-12-18T12:21:38.171Z,0.50
2022-12-18T12:24:24.725Z,0.50
2022-12-18T12:27:07.489Z,0.60
2022-12-18T12:29:52.027Z,0.60
2022-12-18T12:32:37.094Z,0.70
2022-12-18T12:35:21.122Z,0.70
2022-12-18T12:38:06.111Z,0.80
2022-12-18T12:40:58.818Z,0.90
2022-12-18T12:43:35.777Z,0.90
2022-12-18T12:46:08.123Z,1.00
2022-12-18T12:48:46.177Z,1.00
2022-12-18T12:51:21.342Z,0.90
2022-12-18T12:53:51.058Z,0.90
2022-12-18T12:56:22.172Z,0.90
2022-12-18T12:59:04.233Z,1.00
2022-12-18T13:01:40.476Z,1.10
2022-12-18T13:04:22.764Z,1.00
2022-12-18T13:07:01.009Z,1.00
2022-12-18T13:09:35.035Z,1.10
2022-12-18T13:12:24.615Z,1.00
2022-12-18T13:14:53.598Z,1.00
2022-12-18T13:17:33.055Z,1.10
2022-12-18T13:20:15.534Z,1.10
2022-12-18T13:22:51.827Z,1.20
2022-12-18T13:25:36.089Z,1.10
2022-12-18T13:28:12.466Z,1.10
2022-12-18T13:30:58.374Z,1.10
2022-12-18T13:34:01.987Z,1.10
2022-12-18T13:36:34.531Z,1.10
2022-12-18T13:39:35.936Z,1.10
2022-12-18T13:42:59.817Z,1.00
2022-12-18T13:45:51.388Z,1.00
2022-12-18T13:48:24.360Z,0.90
2022-12-18T13:51:01.140Z,0.80
2022-12-18T13:53:35.460Z,0.70
2022-12-18T13:56:08.050Z,0.60
2022-12-18T13:58:36.770Z,0.60
2022-12-18T14:01:05.708Z,0.70
2022-12-18T14:03:34.185Z,0.60
2022-12-18T14:06:06.686Z,0.60
2022-12-18T14:08:41.514Z,0.60
2022-12-18T14:11:23.246Z,0.60
2022-12-18T14:13:52.476Z,0.60
2022-12-18T14:16:20.831Z,0.50
2022-12-18T14:18:55.464Z,0.50
2022-12-18T14:21:30.293Z,0.50
2022-12-18T14:24:17.503Z,0.30
2022-12-18T14:26:51.151Z,0.30
2022-12-18T14:29:29.025Z,0.30
2022-12-18T14:32:17.295Z,0.20
2022-12-18T14:34:48.144Z,0.10
2022-12-18T14:37:18.843Z,0.00
2022-12-18T14:39:59.607Z,-0.10
2022-12-18T14:42:30.262Z,-0.20
2022-12-18T14:45:44.459Z,-0.40
2022-12-18T14:48:23.122Z,-0.50
2022-12-18T14:51:02.185Z,-0.50
2022-12-18T14:53:40.279Z,-0.50
2022-12-18T14:56:22.322Z,-0.70
2022-12-18T14:58:56.500Z,-0.70
2022-12-18T15:01:28.843Z,-0.90
2022-12-18T15:03:59.348Z,-1.00
2022-12-18T15:06:35.810Z,-1.10
2022-12-18T15:09:07.934Z,-1.30
2022-12-18T15:11:48.158Z,-1.30
2022-12-18T15:14:36.655Z,-1.40
2022-12-18T15:17:08.345Z,-1.50
2022-12-18T15:19:40.907Z,-1.50
2022-12-18T15:22:26.427Z,-1.70
2022-12-18T15:24:55.797Z,-1.70
2022-12-18T15:27:31.323Z,-1.80
2022-12-18T15:30:23.837Z,-1.80
2022-12-18T15:32:53.648Z,-1.90
2022-12-18T15:35:24.998Z,-1.90
2022-12-18T15:37:54.505Z,-1.90
2022-12-18T15:40:25.876Z,-2.00
2022-12-18T15:43:25.391Z,-2.10
2022-12-18T15:45:54.966Z,-2.10
2022-12-18T15:48:24.622Z,-2.10
2022-12-18T15:50:54.852Z,-2.10
2022-12-18T15:53:23.142Z,-2.20
2022-12-18T15:56:08.955Z,-2.20
2022-12-18T15:58:37.099Z,-2.30
2022-12-18T16:01:07.161Z,-2.40
2022-12-18T16:03:35.523Z,-2.40
2022-12-18T16:06:06.983Z,-2.50
2022-12-18T16:08:36.098Z,-2.40
2022-12-18T16:11:04.546Z,-2.50
2022-12-18T16:13:32.738Z,-2.60
2022-12-18T16:16:00.958Z,-2.60
2022-12-18T16:18:30.675Z,-2.60
2022-12-18T16:20:58.898Z,-2.60
2022-12-18T16:23:28.078Z,-2.70
2022-12-18T16:25:56.457Z,-2.70
2022-12-18T16:28:24.599Z,-2.70
2022-12-18T16:30:52.735Z,-2.70
2022-12-18T16:33:20.851Z,-2.70
2022-12-18T16:35:55.065Z,-2.70
2022-12-18T16:38:23.326Z,-2.80
2022-12-18T16:41:09.309Z,-2.80
2022-12-18T16:43:37.736Z,-2.80
2022-12-18T16:46:07.279Z,-2.80
2022-12-18T16:48:38.474Z,-2.90
2022-12-18T16:51:08.348Z,-2.90
2022-12-18T16:53:36.707Z,-2.90
2022-12-18T16:56:05.479Z,-3.00
2022-12-18T16:58:34.996Z,-3.00
2022-12-18T17:01:09.775Z,-3.00
2022-12-18T17:03:38.441Z,-3.00
2022-12-18T17:06:09.288Z,-3.00
2022-12-18T17:08:37.513Z,-3.00
2022-12-18T17:11:07.827Z,-3.10
2022-12-18T17:13:38.064Z,-3.00
2022-12-18T17:16:08.279Z,-3.00
2022-12-18T17:18:37.571Z,-3.00
2022-12-18T17:21:09.576Z,-2.90
2022-12-18T17:23:38.446Z,-2.90
2022-12-18T17:26:08.454Z,-2.90
2022-12-18T17:28:38.638Z,-2.90
2022-12-18T17:31:13.695Z,-2.90
2022-12-18T17:33:42.767Z,-2.90
2022-12-18T17:36:13.362Z,-2.90
2022-12-18T17:38:45.439Z,-2.90
2022-12-18T17:41:15.823Z,-2.90
2022-12-18T17:43:45.838Z,-2.90
2022-12-18T17:46:16.710Z,-2.90
2022-12-18T17:48:45.847Z,-2.90
2022-12-18T17:51:16.905Z,-2.90
2022-12-18T17:53:45.521Z,-2.80
2022-12-18T17:56:17.942Z,-2.80
2022-12-18T17:58:47.999Z,-2.80
2022-12-18T18:01:19.239Z,-2.80
2022-12-18T18:03:50.953Z,-2.80
2022-12-18T18:06:23.891Z,-2.80
2022-12-18T18:08:52.786Z,-2.80
2022-12-18T18:11:42.155Z,-2.80
2022-12-18T18:14:15.789Z,-2.80
2022-12-18T18:16:46.759Z,-2.80
2022-12-18T18:19:17.833Z,-2.70
2022-12-18T18:21:50.201Z,-2.70
2022-12-18T18:24:23.263Z,-2.70
2022-12-18T18:26:51.690Z,-2.80
2022-12-18T18:29:22.706Z,-2.80
2022-12-18T18:31:51.539Z,-2.80
2022-12-18T18:34:23.260Z,-2.70
2022-12-18T18:36:53.357Z,-2.70
2022-12-18T18:39:22.178Z,-2.70
2022-12-18T18:41:50.892Z,-2.60
2022-12-18T18:44:24.410Z,-2.50
2022-12-18T18:46:56.118Z,-2.50
2022-12-18T18:49:26.968Z,-2.40
2022-12-18T18:51:57.829Z,-2.40
2022-12-18T18:54:26.432Z,-2.40
2022-12-18T18:59:43.510Z,-2.30
2022-12-18T19:02:13.958Z,-2.20
2022-12-18T19:04:46.310Z,-2.20
2022-12-18T19:07:29.361Z,-2.20
2022-12-18T19:10:00.036Z,-2.30
2022-12-18T19:12:50.159Z,-2.20
2022-12-18T19:15:18.437Z,-2.20
2022-12-18T19:17:47.449Z,-2.10
2022-12-18T19:20:16.397Z,-2.10
2022-12-18T19:22:51.979Z,-2.10
2022-12-18T19:25:38.338Z,-2.10
2022-12-18T19:28:19.867Z,-2.10
2022-12-18T19:30:55.351Z,-2.10
2022-12-18T19:33:44.609Z,-2.00
2022-12-18T19:36:16.566Z,-2.00
2022-12-18T19:38:46.410Z,-2.00
2022-12-18T19:41:15.555Z,-2.00
2022-12-18T19:43:45.031Z,-2.00
2022-12-18T19:46:16.695Z,-2.00
2022-12-18T19:48:47.624Z,-2.10
2022-12-18T19:51:19.195Z,-2.10
2022-12-18T19:53:53.565Z,-2.20
2022-12-18T19:56:27.314Z,-2.10
2022-12-18T19:58:56.421Z,-2.20
2022-12-18T20:01:26.815Z,-2.20
2022-12-18T20:03:56.038Z,-2.30
2022-12-18T20:06:28.807Z,-2.20
2022-12-18T20:09:03.394Z,-2.20
2022-12-18T20:11:32.002Z,-2.30
2022-12-18T20:14:03.074Z,-2.30
2022-12-18T20:16:31.911Z,-2.30
2022-12-18T20:19:00.633Z,-2.30
2022-12-18T20:21:28.889Z,-2.30
2022-12-18T20:24:00.108Z,-2.20
2022-12-18T20:26:28.985Z,-2.30
2022-12-18T20:28:57.375Z,-2.20
2022-12-18T20:31:26.063Z,-2.20
2022-12-18T20:33:55.637Z,-2.20
2022-12-18T20:36:28.168Z,-2.20
2022-12-18T20:39:00.471Z,-2.10
2022-12-18T20:41:38.529Z,-2.10
2022-12-18T20:44:13.750Z,-2.10
2022-12-18T20:46:53.440Z,-2.10
2022-12-18T20:49:21.834Z,-2.10
2022-12-18T20:51:52.975Z,-2.20
2022-12-18T20:54:23.447Z,-2.30
2022-12-18T20:56:51.745Z,-2.30
2022-12-18T20:59:20.467Z,-2.30
2022-12-18T21:01:49.494Z,-2.30
2022-12-18T21:04:19.212Z,-2.30
2022-12-18T21:06:52.957Z,-2.40
2022-12-18T21:09:27.378Z,-2.40
2022-12-18T21:12:13.946Z,-2.50
2022-12-18T21:14:43.471Z,-2.40
2022-12-18T21:17:12.292Z,-2.40
2022-12-18T21:19:40.757Z,-2.30
2022-12-18T21:22:10.686Z,-2.30
2022-12-18T21:24:40.363Z,-2.30
2022-12-18T21:27:08.582Z,-2.30
2022-12-18T21:29:38.808Z,-2.40
2022-12-18T21:32:08.949Z,-2.50
2022-12-18T21:34:37.370Z,-2.50
2022-12-18T21:37:06.139Z,-2.60
2022-12-18T21:39:34.945Z,-2.60
2022-12-18T21:42:22.775Z,-2.60
2022-12-18T21:44:51.730Z,-2.50
2022-12-18T21:47:23.043Z,-2.50
2022-12-18T21:49:53.023Z,-2.50
2022-12-18T21:52:26.284Z,-2.40
2022-12-18T21:55:10.005Z,-2.30
2022-12-18T21:57:40.376Z,-2.30
2022-12-18T22:00:18.996Z,-2.20
2022-12-18T22:03:03.138Z,-2.30
2022-12-18T22:05:37.642Z,-2.30
2022-12-18T22:08:06.783Z,-2.20
2022-12-18T22:10:35.378Z,-2.10
2022-12-18T22:13:05.168Z,-2.10
2022-12-18T22:15:33.512Z,-2.10
2022-12-18T22:18:01.950Z,-2.00
2022-12-18T22:20:30.373Z,-2.00
2022-12-18T22:22:58.854Z,-2.00
2022-12-18T22:25:29.488Z,-1.90
2022-12-18T22:28:15.139Z,-1.90
2022-12-18T22:30:45.709Z,-2.00
2022-12-18T22:33:14.084Z,-2.00
2022-12-18T22:35:42.426Z,-2.00
2022-12-18T22:38:11.913Z,-1.90
2022-12-18T22:40:40.324Z,-1.90
2022-12-18T22:43:08.570Z,-2.00
2022-12-18T22:45:38.817Z,-2.00
2022-12-18T22:48:09.009Z,-2.00
2022-12-18T22:50:37.307Z,-2.10
2022-12-18T22:53:07.775Z,-2.10
2022-12-18T22:55:35.939Z,-2.00
2022-12-18T22:58:04.073Z,-2.00
2022-12-18T23:00:32.282Z,-2.00
2022-12-18T23:03:01.268Z,-1.90
2022-12-18T23:05:32.582Z,-1.90
2022-12-18T23:08:01.012Z,-1.80
2022-12-18T23:10:29.279Z,-1.80
2022-12-18T23:12:57.507Z,-1.80
2022-12-18T23:15:28.252Z,-1.80
2022-12-18T23:17:58.834Z,-1.80
2022-12-18T23:20:28.638Z,-1.80
2022-12-18T23:22:58.154Z,-1.80
2022-12-18T23:25:26.380Z,-1.80
2022-12-18T23:27:54.891Z,-1.80
2022-12-18T23:30:23.558Z,-1.70
2022-12-18T23:32:51.746Z,-1.70
2022-12-18T23:35:20.092Z,-1.60
2022-12-18T23:38:04.673Z,-1.60
2022-12-18T23:40:34.167Z,-1.60
2022-12-18T23:43:02.425Z,-1.60
2022-12-18T23:45:30.621Z,-1.60
2022-12-18T23:47:58.795Z,-1.60
2022-12-18T23:50:28.893Z,-1.60
2022-12-18T23:53:04.765Z,-1.60
2022-12-18T23:55:40.398Z,-1.60
2022-12-18T23:58:10.119Z,-1.50
